Time;durP1;ratioP1;P1;durP2;ratioP2;P2;SDS_P1;SDS_P2;PMS_P1;PMS_P2;Temp;Humidity;BMP_temperature;BMP_pressure;BME280_temperature;BME280_humidity;BME280_pressure;Samples;Min_cycle;Max_cycle;Signal;HPM_P1;HPM_P2
2022/09/29 00:03:08;;;;;;;9.48;4.00;;;15.30;73.00;;;;;;7385883;19;20033;-88
2022/09/29 00:05:37;;;;;;;7.85;3.92;;;15.30;73.00;;;;;;7406183;19;20023;-88
2022/09/29 00:08:06;;;;;;;15.27;4.50;;;15.30;73.10;;;;;;7408647;19;20011;-89
2022/09/29 00:10:35;;;;;;;11.73;4.95;;;15.30;73.00;;;;;;7431423;19;20014;-88
2022/09/29 00:13:06;;;;;;;10.70;4.75;;;15.30;72.80;;;;;;7406743;19;20007;-88
2022/09/29 00:15:35;;;;;;;17.85;5.32;;;15.30;72.90;;;;;;7407268;19;20039;-88
2022/09/29 00:18:04;;;;;;;13.00;5.20;;;15.30;72.80;;;;;;7408263;19;19999;-88
2022/09/29 00:20:33;;;;;;;12.20;4.80;;;15.30;72.90;;;;;;7410807;19;20102;-88
2022/09/29 00:23:02;;;;;;;8.38;4.75;;;15.30;73.20;;;;;;7411562;19;20014;-88
2022/09/29 00:25:34;;;;;;;6.80;4.25;;;15.30;73.20;;;;;;7428583;19;20007;-88
2022/09/29 00:28:03;;;;;;;9.00;5.45;;;15.30;73.30;;;;;;7410508;19;20011;-89
2022/09/29 00:30:34;;;;;;;8.48;4.93;;;15.30;73.40;;;;;;7409905;19;20010;-88
2022/09/29 00:33:03;;;;;;;8.73;4.97;;;15.20;73.60;;;;;;7406109;19;20014;-88
2022/09/29 00:43:23;;;;;;;11.15;5.15;;;15.30;74.20;;;;;;7325922;19;20015;-89
2022/09/29 00:45:56;;;;;;;7.68;5.35;;;15.20;73.30;;;;;;7407508;19;20020;-91
2022/09/29 00:48:33;;;;;;;9.90;4.93;;;15.20;73.60;;;;;;7406275;19;20013;-91
2022/09/29 00:51:02;;;;;;;7.70;5.32;;;15.20;73.70;;;;;;7406340;19;20010;-90
2022/09/29 00:56:05;;;;;;;11.65;5.32;;;15.20;73.50;;;;;;7408848;19;20006;-90
2022/09/29 00:58:38;;;;;;;7.05;4.78;;;15.20;73.30;;;;;;7427620;19;20038;-91
2022/09/29 01:01:11;;;;;;;16.42;4.40;;;15.20;73.40;;;;;;7403632;19;20018;-90
2022/09/29 01:03:45;;;;;;;7.72;4.28;;;15.10;73.10;;;;;;7403476;19;20046;-90
2022/09/29 01:06:20;;;;;;;10.50;4.00;;;15.10;73.20;;;;;;7400310;19;20019;-90
2022/09/29 01:08:56;;;;;;;11.13;4.50;;;15.10;73.30;;;;;;7409275;19;20022;-91
2022/09/29 01:11:25;;;;;;;10.23;4.60;;;15.10;73.40;;;;;;7410124;19;20034;-90
2022/09/29 01:13:57;;;;;;;9.13;4.65;;;15.20;73.40;;;;;;7411047;19;20014;-91
2022/09/29 01:16:29;;;;;;;10.93;4.65;;;15.10;73.50;;;;;;7431048;19;20010;-90
2022/09/29 01:18:59;;;;;;;9.63;4.65;;;15.10;73.60;;;;;;7409197;19;20002;-89
2022/09/29 01:21:36;;;;;;;10.70;4.43;;;15.20;73.70;;;;;;7408687;19;20015;-89
2022/09/29 01:27:17;;;;;;;8.30;3.80;;;15.20;73.60;;;;;;7410236;19;20001;-89
2022/09/29 01:30:01;;;;;;;10.38;3.72;;;15.10;73.60;;;;;;7405971;19;20003;-86
2022/09/29 01:32:48;;;;;;;9.75;4.60;;;15.10;73.60;;;;;;7406443;19;20676;-92
2022/09/29 01:35:25;;;;;;;10.73;3.38;;;15.10;73.30;;;;;;7387590;19;20018;-89
2022/09/29 01:38:09;;;;;;;10.52;3.30;;;15.10;73.10;;;;;;7382131;19;20446;-89
2022/09/29 01:40:46;;;;;;;9.90;3.85;;;15.10;73.10;;;;;;7403565;19;20010;-90
2022/09/29 01:43:20;;;;;;;6.18;3.40;;;15.10;73.10;;;;;;7385351;19;20015;-89
2022/09/29 01:45:55;;;;;;;9.25;3.33;;;15.10;73.00;;;;;;7390761;19;20013;-90
2022/09/29 01:48:31;;;;;;;13.95;3.40;;;15.10;72.90;;;;;;7397349;19;20014;-91
2022/09/29 01:51:06;;;;;;;6.88;2.90;;;15.10;73.10;;;;;;7388907;19;20023;-90
2022/09/29 01:53:39;;;;;;;8.20;3.67;;;15.10;73.10;;;;;;7376973;19;20024;-91
2022/09/29 01:56:13;;;;;;;9.63;3.60;;;15.10;73.20;;;;;;7379379;19;20019;-91
2022/09/29 01:58:53;;;;;;;9.60;3.60;;;15.10;73.20;;;;;;7415975;19;20017;-90
2022/09/29 02:01:26;;;;;;;6.72;3.17;;;15.10;73.10;;;;;;7391135;19;20025;-91
2022/09/29 02:04:03;;;;;;;4.97;3.28;;;15.20;73.20;;;;;;7390244;19;20349;-90
2022/09/29 02:06:39;;;;;;;11.10;3.83;;;15.10;73.20;;;;;;7391432;19;20007;-90
2022/09/29 02:09:14;;;;;;;9.55;3.75;;;15.10;73.10;;;;;;7396496;19;20023;-91
2022/09/29 02:11:44;;;;;;;6.85;3.65;;;15.10;73.30;;;;;;7401065;19;20022;-92
2022/09/29 02:14:17;;;;;;;9.07;3.80;;;15.20;73.30;;;;;;7381098;19;20018;-89
2022/09/29 02:16:53;;;;;;;9.85;3.22;;;15.10;73.00;;;;;;7400729;19;20031;-89
2022/09/29 02:19:27;;;;;;;5.60;3.28;;;15.10;73.20;;;;;;7385199;19;20048;-89
2022/09/29 02:21:56;;;;;;;8.75;3.33;;;15.00;73.00;;;;;;7383809;19;20010;-90
2022/09/29 02:24:26;;;;;;;12.45;4.05;;;15.10;73.50;;;;;;7383318;19;20035;-89
2022/09/29 02:26:54;;;;;;;9.40;3.15;;;15.10;73.60;;;;;;7379305;19;20071;-90
2022/09/29 02:29:23;;;;;;;12.13;3.60;;;15.00;73.30;;;;;;7375212;19;20900;-90
2022/09/29 02:31:52;;;;;;;7.57;3.50;;;15.10;73.60;;;;;;7371503;19;20018;-90
2022/09/29 02:34:25;;;;;;;11.05;3.70;;;15.10;73.70;;;;;;7395477;19;20015;-90
2022/09/29 02:37:00;;;;;;;7.88;3.80;;;15.10;73.80;;;;;;7378084;19;20465;-90
2022/09/29 02:39:41;;;;;;;6.22;3.25;;;15.00;73.80;;;;;;7380999;19;20014;-88
2022/09/29 02:42:20;;;;;;;9.50;3.43;;;15.10;73.80;;;;;;7381354;19;20073;-90
2022/09/29 02:45:08;;;;;;;6.13;3.42;;;15.10;73.90;;;;;;7384723;19;20434;-90
2022/09/29 02:48:00;;;;;;;11.20;4.20;;;15.10;74.00;;;;;;7381073;19;20018;-90
2022/09/29 02:50:47;;;;;;;7.10;3.28;;;15.10;73.50;;;;;;7383561;19;20018;-88
2022/09/29 02:53:26;;;;;;;17.35;3.78;;;15.10;73.60;;;;;;7390264;19;20079;-89
2022/09/29 02:56:04;;;;;;;19.45;3.60;;;15.10;73.80;;;;;;7391162;19;20070;-90
2022/09/29 02:58:39;;;;;;;11.27;3.25;;;15.00;73.60;;;;;;7411732;19;20039;-90
2022/09/29 03:01:09;;;;;;;9.88;3.45;;;15.00;73.90;;;;;;7382771;19;20102;-91
2022/09/29 03:03:38;;;;;;;7.05;3.47;;;15.10;74.10;;;;;;7378274;19;20098;-88
2022/09/29 03:06:11;;;;;;;9.85;3.53;;;15.10;74.20;;;;;;7379965;19;20022;-88
2022/09/29 03:08:43;;;;;;;8.13;3.28;;;15.10;74.60;;;;;;7378061;19;20014;-88
2022/09/29 03:11:12;;;;;;;9.80;3.25;;;15.10;73.80;;;;;;7378292;19;20025;-88
2022/09/29 03:13:41;;;;;;;10.35;3.58;;;15.10;73.70;;;;;;7401016;19;20026;-88
2022/09/29 03:16:12;;;;;;;9.63;3.50;;;15.10;73.80;;;;;;7378014;19;20022;-88
2022/09/29 03:18:42;;;;;;;10.18;3.50;;;15.20;73.90;;;;;;7380805;19;20044;-88
2022/09/29 03:21:14;;;;;;;9.38;2.88;;;15.20;73.90;;;;;;7386059;19;20018;-86
2022/09/29 03:23:42;;;;;;;;;;;15.10;73.80;;;;;;7379478;19;20082;-86
2022/09/29 03:26:11;;;;;;;7.75;3.67;;;15.20;73.90;;;;;;7380161;19;20366;-87
2022/09/29 03:28:41;;;;;;;8.02;3.20;;;15.20;73.60;;;;;;7409094;19;20434;-88
2022/09/29 03:31:15;;;;;;;7.95;3.42;;;15.20;73.60;;;;;;7389173;19;20043;-88
2022/09/29 03:33:44;;;;;;;7.50;3.05;;;15.10;73.70;;;;;;7384683;19;20102;-90
2022/09/29 03:36:15;;;;;;;5.20;2.90;;;15.10;73.60;;;;;;7382407;19;20031;-90
2022/09/29 03:38:47;;;;;;;6.85;2.88;;;15.00;73.50;;;;;;7381448;19;20014;-90
2022/09/29 03:41:16;;;;;;;7.20;3.10;;;15.00;73.70;;;;;;7382988;19;20086;-90
2022/09/29 03:43:45;;;;;;;5.00;3.15;;;15.10;73.90;;;;;;7403242;19;20026;-91
2022/09/29 03:46:14;;;;;;;11.57;4.03;;;15.00;73.70;;;;;;7388841;19;20442;-90
2022/09/29 03:48:43;;;;;;;9.02;3.30;;;15.10;74.40;;;;;;7388660;19;20023;-90
2022/09/29 03:51:11;;;;;;;7.25;3.47;;;15.10;73.60;;;;;;7383784;19;20006;-91
2022/09/29 03:53:43;;;;;;;8.25;3.63;;;15.00;73.70;;;;;;7381501;19;20462;-90
2022/09/29 03:56:11;;;;;;;;;;;15.00;73.90;;;;;;7378009;19;20367;-91
2022/09/29 03:58:40;;;;;;;7.47;3.05;;;15.10;74.10;;;;;;7403816;19;20005;-90
2022/09/29 04:01:09;;;;;;;11.23;3.40;;;15.10;74.10;;;;;;7384210;19;20109;-90
2022/09/29 04:03:38;;;;;;;5.57;3.38;;;15.00;74.10;;;;;;7384920;19;20006;-91
2022/09/29 04:06:07;;;;;;;8.40;2.92;;;15.10;74.20;;;;;;7389807;19;20023;-91
2022/09/29 04:08:38;;;;;;;8.85;3.65;;;15.00;74.20;;;;;;7399134;19;20015;-90
2022/09/29 04:11:10;;;;;;;7.25;3.20;;;15.00;74.30;;;;;;7394129;19;20058;-91
2022/09/29 04:13:39;;;;;;;8.75;3.45;;;15.00;74.30;;;;;;7412037;19;20018;-90
2022/09/29 04:16:08;;;;;;;10.80;3.38;;;15.10;74.20;;;;;;7388339;19;20344;-89
2022/09/29 04:18:38;;;;;;;9.27;3.28;;;15.00;74.10;;;;;;7390096;19;20372;-89
2022/09/29 04:21:08;;;;;;;7.55;2.90;;;15.00;74.20;;;;;;7388664;19;20035;-90
2022/09/29 04:23:37;;;;;;;12.60;3.05;;;15.00;74.20;;;;;;7389396;19;20578;-90
2022/09/29 04:26:10;;;;;;;5.55;2.38;;;15.00;74.20;;;;;;7391876;19;20022;-89
2022/09/29 04:28:40;;;;;;;11.65;3.30;;;15.00;74.20;;;;;;7403394;19;20026;-89
2022/09/29 04:31:10;;;;;;;5.22;2.72;;;15.00;74.20;;;;;;7378033;19;20434;-90
2022/09/29 04:33:40;;;;;;;4.82;2.83;;;15.00;74.20;;;;;;7376544;19;20097;-89
2022/09/29 04:36:09;;;;;;;7.40;3.25;;;15.00;74.30;;;;;;7375171;19;20071;-90
2022/09/29 04:38:38;;;;;;;5.85;3.22;;;15.00;74.80;;;;;;7372984;19;20085;-90
2022/09/29 04:41:09;;;;;;;6.82;2.97;;;15.00;74.20;;;;;;7381678;19;20106;-90
2022/09/29 04:43:38;;;;;;;10.45;3.50;;;15.00;74.20;;;;;;7417442;19;20043;-90
2022/09/29 04:46:09;;;;;;;10.23;3.20;;;15.00;74.20;;;;;;7388006;19;20035;-89
2022/09/29 04:48:38;;;;;;;10.50;3.75;;;14.90;74.30;;;;;;7377463;19;20357;-90
2022/09/29 04:51:09;;;;;;;13.30;3.70;;;15.00;74.50;;;;;;7376451;19;20126;-89
2022/09/29 04:53:38;;;;;;;11.02;3.55;;;14.90;74.30;;;;;;7375371;19;20073;-90
2022/09/29 04:56:10;;;;;;;13.88;3.33;;;15.00;74.40;;;;;;7376419;19;20789;-89
2022/09/29 04:58:39;;;;;;;12.57;4.10;;;14.90;74.30;;;;;;7396881;19;20386;-90
2022/09/29 05:01:11;;;;;;;6.35;3.58;;;14.90;74.30;;;;;;7378489;19;20107;-90
2022/09/29 05:03:40;;;;;;;10.82;3.28;;;14.90;74.20;;;;;;7392211;19;20019;-90
2022/09/29 05:06:10;;;;;;;12.73;3.63;;;14.90;74.30;;;;;;7400009;19;20022;-90
2022/09/29 05:08:38;;;;;;;12.38;3.60;;;14.90;74.30;;;;;;7405314;19;20030;-90
2022/09/29 05:11:11;;;;;;;10.20;3.47;;;14.90;74.30;;;;;;7407405;19;20039;-91
2022/09/29 05:13:40;;;;;;;10.02;4.15;;;14.90;74.40;;;;;;7425780;19;20022;-92
2022/09/29 05:16:09;;;;;;;10.90;4.03;;;14.90;74.30;;;;;;7393473;19;20015;-91
2022/09/29 05:18:38;;;;;;;9.88;4.32;;;14.90;74.40;;;;;;7390047;19;20093;-92
2022/09/29 05:21:08;;;;;;;11.05;4.38;;;14.90;74.60;;;;;;7384597;19;20018;-91
2022/09/29 05:23:37;;;;;;;15.05;4.00;;;14.90;74.60;;;;;;7377899;19;20018;-90
2022/09/29 05:26:10;;;;;;;11.77;4.60;;;14.90;74.70;;;;;;7377786;19;20014;-90
2022/09/29 05:28:40;;;;;;;12.88;4.38;;;14.80;74.50;;;;;;7397238;19;20329;-90
2022/09/29 05:31:10;;;;;;;9.35;4.65;;;14.80;74.60;;;;;;7376571;19;20030;-90
2022/09/29 05:33:40;;;;;;;7.97;4.35;;;14.80;74.70;;;;;;7385466;19;20450;-89
2022/09/29 05:36:10;;;;;;;10.45;4.95;;;14.80;74.70;;;;;;7382532;19;20073;-89
2022/09/29 05:38:44;;;;;;;9.32;3.88;;;14.80;74.60;;;;;;7388503;19;20046;-89
2022/09/29 05:41:16;;;;;;;13.13;3.80;;;14.80;74.30;;;;;;7383272;19;20392;-89
2022/09/29 05:43:48;;;;;;;8.63;3.70;;;14.80;74.30;;;;;;7405500;19;20019;-90
2022/09/29 05:46:18;;;;;;;6.18;3.78;;;14.80;74.40;;;;;;7382353;19;20023;-88
2022/09/29 05:48:48;;;;;;;11.10;4.45;;;14.90;74.60;;;;;;7376368;19;20011;-89
2022/09/29 05:51:19;;;;;;;8.00;4.45;;;14.90;74.60;;;;;;7376239;19;20109;-89
2022/09/29 05:53:48;;;;;;;8.95;4.10;;;14.80;74.50;;;;;;7381110;19;20098;-89
2022/09/29 05:56:22;;;;;;;12.93;4.35;;;14.90;74.50;;;;;;7379019;19;20017;-89
2022/09/29 05:58:51;;;;;;;13.52;5.25;;;14.90;74.50;;;;;;7378823;19;20074;-91
2022/09/29 06:01:22;;;;;;;17.05;5.97;;;14.90;74.40;;;;;;7415400;19;20010;-88
2022/09/29 06:03:51;;;;;;;17.60;6.45;;;14.90;74.10;;;;;;7407892;19;20007;-89
2022/09/29 06:06:22;;;;;;;10.50;6.07;;;14.90;73.90;;;;;;7399256;19;20058;-90
2022/09/29 06:08:51;;;;;;;13.13;5.47;;;14.90;74.10;;;;;;7398070;19;20015;-89
2022/09/29 06:11:26;;;;;;;15.45;5.15;;;14.90;74.30;;;;;;7385615;19;20023;-90
2022/09/29 06:13:56;;;;;;;9.88;5.00;;;14.90;74.40;;;;;;7389899;19;20035;-90
2022/09/29 06:16:26;;;;;;;12.65;5.10;;;14.90;74.40;;;;;;7409037;19;20014;-88
2022/09/29 06:18:56;;;;;;;15.27;5.53;;;14.90;74.50;;;;;;7382070;19;20085;-88
2022/09/29 06:21:27;;;;;;;15.90;5.75;;;15.00;74.50;;;;;;7379136;19;20771;-89
2022/09/29 06:23:57;;;;;;;13.20;5.53;;;14.90;74.90;;;;;;7384200;19;20010;-90
2022/09/29 06:26:29;;;;;;;13.32;5.82;;;15.00;74.20;;;;;;7381492;19;20018;-82
2022/09/29 06:28:58;;;;;;;16.00;7.10;;;14.90;74.30;;;;;;7373651;19;20435;-86
2022/09/29 06:31:30;;;;;;;15.82;6.38;;;15.00;75.20;;;;;;7395543;19;20015;-87
2022/09/29 06:34:00;;;;;;;15.35;6.07;;;14.90;74.00;;;;;;7371879;19;20291;-84
2022/09/29 06:39:15;;;;;;;14.52;6.82;;;14.90;74.90;;;;;;7377049;19;20025;-80
2022/09/29 06:41:52;;;;;;;19.90;8.30;;;14.90;74.00;;;;;;7372465;19;20011;-81
2022/09/29 06:44:23;;;;;;;13.50;7.30;;;14.90;74.00;;;;;;7373282;19;20058;-88
2022/09/29 06:46:52;;;;;;;15.13;6.90;;;14.80;74.80;;;;;;7367682;19;20018;-83
2022/09/29 06:49:21;;;;;;;10.73;7.00;;;14.80;74.20;;;;;;7403121;19;20011;-82
2022/09/29 06:51:50;;;;;;;17.55;7.32;;;14.90;74.30;;;;;;7383537;19;20023;-82
2022/09/29 06:54:23;;;;;;;13.93;7.05;;;14.90;74.10;;;;;;7380984;19;20035;-81
2022/09/29 06:56:56;;;;;;;14.13;7.13;;;14.90;74.00;;;;;;7371571;19;20021;-81
2022/09/29 06:59:25;;;;;;;14.30;7.50;;;14.90;73.80;;;;;;7370836;19;20384;-83
2022/09/29 07:01:54;;;;;;;12.63;6.88;;;14.90;73.60;;;;;;7368352;19;20062;-79
2022/09/29 07:04:23;;;;;;;15.48;6.90;;;15.00;73.60;;;;;;7390797;19;20022;-79
2022/09/29 07:06:52;;;;;;;14.13;6.72;;;15.00;73.60;;;;;;7366796;19;20035;-79
2022/09/29 07:09:22;;;;;;;14.60;7.63;;;15.00;73.60;;;;;;7367045;19;20010;-80
2022/09/29 07:11:54;;;;;;;13.43;6.68;;;15.00;73.30;;;;;;7367244;19;20061;-81
2022/09/29 07:14:24;;;;;;;15.07;6.90;;;15.00;73.20;;;;;;7371520;19;20018;-80
2022/09/29 07:16:54;;;;;;;10.93;6.82;;;15.00;73.50;;;;;;7365177;19;20022;-79
2022/09/29 07:19:22;;;;;;;12.35;7.07;;;15.00;73.70;;;;;;7389139;19;20039;-80
2022/09/29 07:21:51;;;;;;;14.98;7.25;;;15.10;73.90;;;;;;7368959;19;20019;-80
2022/09/29 07:24:20;;;;;;;14.25;7.00;;;15.20;73.90;;;;;;7373419;19;20019;-81
2022/09/29 07:26:49;;;;;;;11.68;7.07;;;15.20;74.00;;;;;;7377537;19;20114;-80
2022/09/29 07:29:20;;;;;;;13.73;6.95;;;15.30;73.80;;;;;;7377104;19;20105;-79
2022/09/29 07:31:51;;;;;;;12.88;6.88;;;15.40;73.60;;;;;;7383033;19;20477;-79
2022/09/29 07:34:20;;;;;;;12.83;6.43;;;15.40;73.40;;;;;;7396780;19;20105;-79
2022/09/29 07:36:49;;;;;;;13.98;7.07;;;15.50;73.00;;;;;;7373387;19;20264;-79
2022/09/29 07:39:18;;;;;;;21.95;7.65;;;15.50;72.80;;;;;;7376503;19;20018;-78
2022/09/29 07:41:46;;;;;;;14.27;6.88;;;15.40;72.70;;;;;;7380770;19;20018;-79
2022/09/29 07:44:15;;;;;;;17.92;6.40;;;15.40;73.00;;;;;;7386251;19;20022;-81
2022/09/29 07:46:47;;;;;;;12.77;6.45;;;15.50;73.10;;;;;;7401785;19;20022;-79
2022/09/29 07:49:16;;;;;;;13.05;6.53;;;15.40;72.90;;;;;;7376545;19;20025;-80
2022/09/29 07:51:44;;;;;;;8.82;6.22;;;15.50;72.90;;;;;;7377440;19;20109;-79
2022/09/29 07:54:13;;;;;;;10.52;6.35;;;15.40;72.60;;;;;;7377009;19;20014;-81
2022/09/29 07:56:42;;;;;;;14.57;6.57;;;15.50;72.50;;;;;;7378873;19;20082;-80
2022/09/29 07:59:12;;;;;;;14.50;6.80;;;15.50;72.50;;;;;;7374915;19;20014;-78
2022/09/29 08:01:41;;;;;;;14.02;6.75;;;15.50;72.60;;;;;;7395711;19;20026;-79
2022/09/29 08:04:12;;;;;;;16.05;6.93;;;15.50;72.50;;;;;;7375171;19;20006;-79
2022/09/29 08:06:41;;;;;;;12.18;6.43;;;15.40;72.30;;;;;;7374059;19;20026;-80
2022/09/29 08:09:10;;;;;;;11.98;6.85;;;15.40;72.00;;;;;;7374003;19;20384;-80
2022/09/29 08:11:40;;;;;;;13.75;6.53;;;15.40;72.00;;;;;;7373360;19;20011;-80
2022/09/29 08:14:10;;;;;;;15.02;7.00;;;15.40;72.00;;;;;;7374892;19;20680;-80
2022/09/29 08:16:40;;;;;;;15.13;6.35;;;15.40;72.30;;;;;;7399532;19;20573;-79
2022/09/29 08:19:08;;;;;;;15.23;6.63;;;15.50;72.20;;;;;;7385309;19;20022;-80
2022/09/29 08:21:40;;;;;;;14.95;7.07;;;15.50;72.00;;;;;;7381529;19;20106;-79
2022/09/29 08:24:09;;;;;;;17.17;6.70;;;15.40;71.90;;;;;;7377483;19;20019;-79
2022/09/29 08:26:40;;;;;;;16.00;6.05;;;15.50;72.00;;;;;;7382648;19;20081;-81
2022/09/29 08:29:08;;;;;;;18.75;5.72;;;15.50;72.00;;;;;;7387254;19;20019;-80
2022/09/29 08:31:38;;;;;;;10.68;5.10;;;15.60;71.50;;;;;;7408496;19;20689;-81
2022/09/29 08:34:08;;;;;;;15.40;5.60;;;15.60;71.60;;;;;;7382221;19;20049;-80
2022/09/29 08:36:39;;;;;;;17.27;5.30;;;15.70;71.80;;;;;;7380555;19;20078;-81
2022/09/29 08:39:11;;;;;;;11.60;5.05;;;15.80;71.80;;;;;;7378549;19;20073;-80
2022/09/29 08:41:52;;;;;;;9.35;5.55;;;15.90;71.30;;;;;;7378499;19;20011;-80
2022/09/29 08:44:28;;;;;;;14.98;5.78;;;16.00;71.00;;;;;;7376977;19;20010;-79
2022/09/29 08:47:00;;;;;;;12.93;5.85;;;16.10;70.60;;;;;;7370731;19;20025;-81
2022/09/29 08:49:34;;;;;;;10.98;5.63;;;16.10;69.90;;;;;;7393874;19;20371;-81
2022/09/29 08:52:12;;;;;;;13.38;5.85;;;16.20;69.90;;;;;;7378105;19;20082;-80
2022/09/29 08:54:43;;;;;;;14.25;5.93;;;16.30;68.90;;;;;;7379163;19;20047;-80
2022/09/29 08:57:23;;;;;;;15.45;6.32;;;16.40;69.30;;;;;;7375773;19;20015;-80
2022/09/29 08:59:56;;;;;;;10.93;5.70;;;16.40;68.30;;;;;;7373784;19;20481;-81
2022/09/29 09:02:56;;;;;;;11.00;6.00;;;16.50;67.60;;;;;;7372441;19;20018;-80
2022/09/29 09:05:42;;;;;;;16.92;5.63;;;16.40;67.60;;;;;;7371301;19;20082;-81
2022/09/29 09:08:21;;;;;;;10.98;5.93;;;16.40;68.00;;;;;;7371924;19;20093;-81
2022/09/29 09:10:59;;;;;;;12.73;4.95;;;16.30;68.00;;;;;;7373319;19;20098;-81
2022/09/29 09:13:44;;;;;;;10.93;5.28;;;16.40;68.10;;;;;;7394422;19;20102;-83
2022/09/29 09:16:24;;;;;;;14.57;5.82;;;16.30;68.00;;;;;;7372547;19;20019;-79
2022/09/29 09:19:20;;;;;;;11.45;5.20;;;16.30;68.10;;;;;;7371576;19;20145;-80
2022/09/29 09:21:54;;;;;;;11.68;5.57;;;16.40;68.10;;;;;;7373432;19;20034;-81
2022/09/29 09:24:36;;;;;;;17.15;5.65;;;16.40;67.80;;;;;;7372171;19;20088;-85
2022/09/29 09:27:05;;;;;;;10.10;5.03;;;16.40;67.80;;;;;;7379269;19;20014;-88
2022/09/29 09:29:37;;;;;;;13.10;5.15;;;16.50;67.80;;;;;;7383445;19;20056;-86
2022/09/29 09:32:10;;;;;;;7.40;4.75;;;16.50;67.80;;;;;;7380741;19;20023;-86
2022/09/29 09:34:44;;;;;;;7.32;4.47;;;16.50;67.50;;;;;;7391923;19;20010;-85
2022/09/29 09:37:19;;;;;;;15.00;6.15;;;16.50;67.50;;;;;;7386351;19;20382;-86
2022/09/29 09:39:59;;;;;;;13.02;5.10;;;16.50;67.10;;;;;;7380744;19;20022;-84
2022/09/29 09:42:32;;;;;;;12.40;5.43;;;16.50;66.40;;;;;;7378724;19;20019;-84
2022/09/29 09:45:06;;;;;;;11.10;4.70;;;16.40;66.60;;;;;;7371919;19;20093;-84
2022/09/29 09:47:39;;;;;;;8.77;4.95;;;16.40;67.30;;;;;;7374373;19;20018;-82
2022/09/29 09:50:18;;;;;;;12.20;4.55;;;16.50;67.50;;;;;;7376537;19;20049;-82
2022/09/29 09:52:53;;;;;;;7.32;3.85;;;16.40;67.40;;;;;;7395455;19;20007;-80
2022/09/29 09:55:26;;;;;;;10.38;4.00;;;16.40;66.80;;;;;;7373594;19;20105;-80
2022/09/29 09:58:14;;;;;;;8.88;4.03;;;16.30;67.00;;;;;;7371747;19;21080;-80
2022/09/29 10:00:50;;;;;;;17.52;5.22;;;16.20;67.50;;;;;;7373595;19;20031;-80
2022/09/29 10:03:19;;;;;;;10.48;5.18;;;16.20;67.60;;;;;;7372486;19;20042;-81
2022/09/29 10:05:50;;;;;;;13.00;4.70;;;16.30;67.30;;;;;;7374464;19;20022;-81
2022/09/29 10:08:25;;;;;;;9.87;4.60;;;16.30;67.40;;;;;;7381513;19;20404;-81
2022/09/29 10:10:57;;;;;;;8.95;3.80;;;16.30;67.50;;;;;;7382632;19;20006;-82
2022/09/29 10:13:29;;;;;;;13.40;3.97;;;16.30;67.40;;;;;;7403743;19;20094;-81
2022/09/29 10:16:03;;;;;;;7.25;3.67;;;16.40;67.20;;;;;;7375066;19;20015;-82
2022/09/29 10:18:39;;;;;;;6.28;3.20;;;16.50;66.50;;;;;;7376949;19;20086;-81
2022/09/29 10:21:22;;;;;;;8.00;3.05;;;16.60;66.50;;;;;;7381030;19;20119;-82
2022/09/29 10:23:53;;;;;;;8.65;2.80;;;16.70;65.50;;;;;;7375577;19;20003;-81
2022/09/29 10:26:31;;;;;;;6.53;2.90;;;16.90;65.90;;;;;;7371325;19;20010;-81
2022/09/29 10:29:03;;;;;;;9.82;2.85;;;17.10;65.50;;;;;;7375852;19;20765;-80
2022/09/29 10:31:34;;;;;;;5.05;2.75;;;17.20;65.10;;;;;;7399983;19;20019;-81
2022/09/29 10:34:15;;;;;;;6.75;3.05;;;17.30;63.30;;;;;;7377733;19;20982;-82
2022/09/29 10:36:52;;;;;;;5.38;2.63;;;17.40;61.70;;;;;;7376652;19;20015;-81
2022/09/29 10:39:42;;;;;;;14.80;2.85;;;17.30;62.10;;;;;;7379941;19;20011;-82
2022/09/29 10:42:32;;;;;;;7.47;2.55;;;17.30;61.40;;;;;;7382107;19;20015;-81
2022/09/29 10:45:12;;;;;;;6.03;2.63;;;17.20;61.90;;;;;;7395118;19;20018;-81
2022/09/29 10:47:42;;;;;;;5.32;3.00;;;17.10;61.70;;;;;;7394205;19;20014;-82
2022/09/29 10:50:17;;;;;;;4.80;2.90;;;17.00;62.20;;;;;;7387484;19;20011;-83
2022/09/29 10:52:50;;;;;;;6.97;3.40;;;16.90;62.50;;;;;;7406758;19;20010;-80
2022/09/29 10:55:22;;;;;;;13.55;3.53;;;16.80;63.20;;;;;;7377525;19;20022;-80
2022/09/29 10:57:55;;;;;;;7.03;3.30;;;16.60;64.50;;;;;;7381603;19;20014;-80
2022/09/29 11:00:30;;;;;;;5.18;3.25;;;16.50;65.70;;;;;;7382235;19;20489;-80
2022/09/29 11:03:07;;;;;;;9.10;3.28;;;16.40;66.50;;;;;;7382497;19;20546;-80
2022/09/29 11:05:38;;;;;;;6.45;3.30;;;16.40;67.10;;;;;;7383849;19;20058;-83
2022/09/29 11:08:12;;;;;;;10.70;3.30;;;16.50;67.60;;;;;;7381652;19;20048;-80
2022/09/29 11:10:42;;;;;;;10.70;3.30;;;16.50;68.10;;;;;;7404005;19;20014;-80
2022/09/29 11:13:39;;;;;;;8.25;3.33;;;16.50;68.00;;;;;;7381177;19;20019;-83
2022/09/29 11:16:16;;;;;;;3.83;2.80;;;16.40;67.50;;;;;;7380975;19;20015;-82
2022/09/29 11:18:48;;;;;;;7.30;2.85;;;16.30;66.50;;;;;;7382090;19;20011;-81
2022/09/29 11:21:30;;;;;;;;;;;16.30;66.50;;;;;;7384393;19;21301;-79
2022/09/29 11:24:04;;;;;;;13.57;3.55;;;16.40;67.00;;;;;;7383438;19;19982;-81
2022/09/29 11:26:38;;;;;;;7.43;3.05;;;16.40;67.20;;;;;;7378785;19;20011;-80
2022/09/29 11:29:24;;;;;;;9.52;3.00;;;16.50;67.70;;;;;;7379890;19;20014;-80
2022/09/29 11:32:10;;;;;;;7.25;3.60;;;16.50;67.90;;;;;;7378471;19;20082;-80
2022/09/29 11:35:05;;;;;;;7.95;3.63;;;16.60;67.80;;;;;;7398280;19;20036;-81
2022/09/29 11:37:44;;;;;;;8.48;3.20;;;16.70;67.10;;;;;;7373084;19;20018;-79
2022/09/29 11:40:21;;;;;;;5.10;3.20;;;16.70;67.10;;;;;;7374793;19;20420;-80
2022/09/29 11:43:16;;;;;;;8.02;3.17;;;16.80;67.30;;;;;;7375626;19;20018;-79
2022/09/29 11:46:10;;;;;;;5.40;2.60;;;16.80;67.40;;;;;;7374715;19;20031;-80
2022/09/29 11:49:10;;;;;;;8.00;3.08;;;16.90;67.60;;;;;;7373037;19;20034;-79
2022/09/29 11:51:55;;;;;;;6.72;2.95;;;17.00;67.50;;;;;;7373780;19;20145;-79
2022/09/29 11:54:49;;;;;;;9.35;2.60;;;17.10;65.80;;;;;;7373281;19;20022;-80
2022/09/29 11:57:37;;;;;;;3.72;2.90;;;17.20;65.90;;;;;;7376035;19;20011;-82
2022/09/29 12:00:11;;;;;;;6.10;3.20;;;17.40;66.30;;;;;;7381271;19;20016;-80
2022/09/29 12:03:21;;;;;;;9.10;3.47;;;17.50;67.10;;;;;;7373339;19;20015;-80
2022/09/29 12:06:03;;;;;;;7.68;3.78;;;17.50;68.10;;;;;;7371908;19;20021;-79
2022/09/29 12:08:45;;;;;;;5.28;2.55;;;17.50;68.80;;;;;;7367776;19;20029;-78
2022/09/29 12:11:23;;;;;;;7.93;3.10;;;17.50;68.80;;;;;;7371131;19;20308;-81
2022/09/29 12:13:57;;;;;;;5.65;3.30;;;17.40;68.30;;;;;;7376137;19;20820;-82
2022/09/29 12:16:31;;;;;;;8.10;3.60;;;17.30;68.30;;;;;;7396789;19;20086;-80
2022/09/29 12:19:07;;;;;;;8.00;3.55;;;17.20;68.80;;;;;;7379880;19;20021;-79
2022/09/29 12:21:43;;;;;;;6.18;3.50;;;17.00;69.40;;;;;;7373865;19;20468;-82
2022/09/29 12:24:17;;;;;;;6.93;3.65;;;16.90;69.50;;;;;;7380450;19;20026;-81
2022/09/29 12:26:51;;;;;;;8.75;3.38;;;16.90;69.80;;;;;;7381944;19;20019;-82
2022/09/29 12:29:30;;;;;;;6.40;2.95;;;16.90;70.00;;;;;;7380255;19;20082;-81
2022/09/29 12:32:02;;;;;;;9.82;3.78;;;16.90;70.20;;;;;;7376570;19;20094;-80
2022/09/29 12:34:43;;;;;;;5.93;3.20;;;17.00;70.40;;;;;;7397858;19;20025;-81
2022/09/29 12:37:20;;;;;;;8.10;3.67;;;17.00;70.50;;;;;;7375203;19;20094;-80
2022/09/29 12:39:59;;;;;;;4.95;3.30;;;17.00;70.20;;;;;;7376607;19;20023;-80
2022/09/29 12:42:57;;;;;;;9.65;3.55;;;17.00;70.30;;;;;;7379667;19;20040;-81
2022/09/29 12:45:32;;;;;;;8.27;3.20;;;17.00;70.70;;;;;;7384067;19;20031;-81
2022/09/29 12:48:14;;;;;;;3.88;2.13;;;17.00;70.60;;;;;;7379489;19;20018;-81
2022/09/29 12:50:52;;;;;;;7.85;1.75;;;17.00;70.00;;;;;;7378408;19;20074;-80
2022/09/29 12:53:26;;;;;;;5.22;1.88;;;17.10;69.30;;;;;;7375875;19;20021;-80
2022/09/29 12:56:03;;;;;;;2.88;1.60;;;17.10;69.00;;;;;;7376345;19;20027;-80
2022/09/29 12:58:40;;;;;;;1.67;1.52;;;17.10;68.30;;;;;;7401561;19;20011;-83
2022/09/29 13:01:23;;;;;;;2.13;1.38;;;17.20;68.00;;;;;;7377164;19;20074;-80
2022/09/29 13:04:23;;;;;;;2.88;1.60;;;17.20;68.20;;;;;;7378762;19;20455;-80
2022/09/29 13:07:13;;;;;;;1.95;1.30;;;17.20;67.40;;;;;;7383545;19;20018;-80
2022/09/29 13:09:58;;;;;;;3.22;1.52;;;17.20;67.30;;;;;;7377002;19;20019;-80
2022/09/29 13:12:41;;;;;;;2.25;1.17;;;17.30;67.40;;;;;;7379890;19;20089;-81
2022/09/29 13:15:37;;;;;;;3.35;1.42;;;17.20;67.50;;;;;;7385558;19;20019;-81
2022/09/29 13:18:26;;;;;;;2.35;1.30;;;17.30;67.70;;;;;;7387200;19;20018;-81
2022/09/29 13:21:08;;;;;;;2.25;1.33;;;17.30;67.50;;;;;;7387227;19;20011;-82
2022/09/29 13:24:08;;;;;;;3.95;1.50;;;17.40;67.60;;;;;;7382762;19;20075;-81
2022/09/29 13:27:04;;;;;;;3.63;1.60;;;17.50;65.90;;;;;;7378137;19;20058;-82
2022/09/29 13:29:38;;;;;;;2.83;1.60;;;17.50;65.30;;;;;;7382922;19;20569;-82
2022/09/29 13:32:07;;;;;;;1.63;1.30;;;17.50;64.40;;;;;;7379946;19;20014;-81
2022/09/29 13:34:40;;;;;;;5.32;1.50;;;17.60;65.20;;;;;;7406618;19;20106;-82
2022/09/29 13:37:14;;;;;;;1.20;1.10;;;17.60;65.00;;;;;;7376615;19;20408;-81